Brierfield, Alabama
Current Conditions -  °F | °C
As of 6:53 PM on Friday 19 Dec 2014 (Local Time) from KEET Reporting Station
Light Rain Light Rain  
Wind Chill: 45°   Ceiling: 7000
Heat Index: 45°   Visibility: 9mi
Dew Point: 40°   Wind: 3mph
Humidity: 82%   Direction: 350°N
Pressure: 30.19"   Gusts: NA
Location:  33.04°N, 86.91°W
Report Text: KEET 200053Z AUTO 35003KT 9SM -RA OVC070 07/04 A3019 RMK AO2 SLP223 P0001 T00720044
Loading
Personal Weather Stations






























Interactive Weather Map New forecast layout! Learn more

10-Day Weather Forecast

Advertisements
Track Severe Weather on mobile